Time;durP1;ratioP1;P1;durP2;ratioP2;P2;SDS_P1;SDS_P2;PMS_P1;PMS_P2;Temp;Humidity;BMP_temperature;BMP_pressure;BME280_temperature;BME280_humidity;BME280_pressure;Samples;Min_cycle;Max_cycle;Signal;HPM_P1;HPM_P2
2022/05/06 00:01:39;;;;;;;24.40;13.50;;;11.30;99.90;;;;;;5111562;28;20043;-65
2022/05/06 00:04:05;;;;;;;22.25;13.35;;;11.20;99.90;;;;;;5111269;28;20043;-66
2022/05/06 00:06:32;;;;;;;24.42;13.15;;;11.30;99.90;;;;;;5110790;28;20046;-66
2022/05/06 00:08:58;;;;;;;20.67;13.38;;;11.30;99.90;;;;;;5111353;28;20156;-65
2022/05/06 00:11:24;;;;;;;25.38;14.50;;;11.20;99.90;;;;;;5111579;28;20560;-66
2022/05/06 00:13:52;;;;;;;25.45;13.90;;;11.20;99.90;;;;;;5111576;28;20075;-65
2022/05/06 00:16:24;;;;;;;23.52;13.80;;;11.10;99.90;;;;;;5111009;28;20110;-66
2022/05/06 00:18:51;;;;;;;28.20;13.27;;;11.00;99.90;;;;;;5110555;28;20043;-65
2022/05/06 00:21:17;;;;;;;31.02;13.30;;;11.00;99.90;;;;;;5110878;28;20061;-65
2022/05/06 00:23:43;;;;;;;24.20;14.07;;;10.90;99.90;;;;;;5110315;28;20043;-65
2022/05/06 00:26:08;;;;;;;26.27;13.95;;;11.00;99.90;;;;;;5110522;28;20046;-66
2022/05/06 00:28:35;;;;;;;24.13;13.50;;;11.00;99.90;;;;;;5110019;28;20102;-66
2022/05/06 00:31:01;;;;;;;27.20;12.75;;;10.90;99.90;;;;;;5110734;28;20035;-65
2022/05/06 00:33:27;;;;;;;23.67;14.45;;;10.90;99.90;;;;;;5110484;28;20081;-65
2022/05/06 00:35:54;;;;;;;27.15;13.77;;;10.80;99.90;;;;;;5110514;28;20043;-65
2022/05/06 00:38:20;;;;;;;24.38;14.18;;;10.80;99.90;;;;;;5110973;28;20039;-64
2022/05/06 00:40:45;;;;;;;26.55;14.15;;;10.80;99.90;;;;;;5110808;28;20116;-66
2022/05/06 00:43:11;;;;;;;23.63;13.77;;;10.80;99.90;;;;;;5110271;28;20475;-65
2022/05/06 00:45:48;;;;;;;27.65;13.52;;;10.80;99.90;;;;;;5110304;28;20043;-64
2022/05/06 00:48:14;;;;;;;20.70;12.98;;;10.60;99.90;;;;;;5110989;28;20046;-65
2022/05/06 00:50:40;;;;;;;27.25;14.52;;;10.60;99.90;;;;;;5110354;28;20068;-65
2022/05/06 00:53:08;;;;;;;26.33;13.45;;;10.70;99.90;;;;;;5111330;28;20075;-65
2022/05/06 00:55:35;;;;;;;23.77;13.70;;;10.60;99.90;;;;;;5111151;28;20062;-65
2022/05/06 00:58:02;;;;;;;23.10;13.27;;;10.60;99.90;;;;;;5111073;28;20051;-67
2022/05/06 01:00:28;;;;;;;24.20;14.63;;;10.60;99.90;;;;;;5110421;28;20039;-65
2022/05/06 01:02:53;;;;;;;28.27;14.45;;;10.50;99.90;;;;;;5110617;28;20044;-65
2022/05/06 01:05:19;;;;;;;27.58;13.70;;;10.40;99.90;;;;;;5114314;28;20724;-65
2022/05/06 01:07:47;;;;;;;27.20;14.27;;;10.50;99.90;;;;;;5114681;28;20114;-65
2022/05/06 01:10:13;;;;;;;22.20;13.90;;;10.50;99.90;;;;;;5114600;28;20102;-65
2022/05/06 01:12:38;;;;;;;22.80;13.77;;;10.40;99.90;;;;;;5096395;28;20361;-67
2022/05/06 01:15:26;;;;;;;25.60;13.35;;;10.40;99.90;;;;;;5114121;28;20096;-65
2022/05/06 01:17:55;;;;;;;26.25;14.52;;;10.40;99.90;;;;;;5114687;28;20535;-65
2022/05/06 01:20:22;;;;;;;24.52;13.98;;;10.30;99.90;;;;;;5113959;28;20063;-65
2022/05/06 01:22:52;;;;;;;27.77;14.63;;;10.30;99.90;;;;;;5114780;28;20032;-65
2022/05/06 01:25:20;;;;;;;26.25;14.43;;;10.30;99.90;;;;;;5114605;28;20048;-65
2022/05/06 01:27:48;;;;;;;24.58;13.73;;;10.30;99.90;;;;;;5114285;28;20031;-66
2022/05/06 01:30:24;;;;;;;24.27;13.68;;;10.30;99.90;;;;;;5113747;28;20039;-65
2022/05/06 01:32:51;;;;;;;27.45;14.20;;;10.30;99.90;;;;;;5114161;28;20053;-66
2022/05/06 01:35:21;;;;;;;22.58;13.70;;;10.20;99.90;;;;;;5114376;28;20123;-65
2022/05/06 01:37:49;;;;;;;27.08;14.25;;;10.10;99.90;;;;;;5114321;28;20079;-64
2022/05/06 01:40:18;;;;;;;23.63;13.25;;;10.10;99.90;;;;;;5114151;28;20049;-65
2022/05/06 01:42:46;;;;;;;24.40;12.50;;;10.00;99.90;;;;;;5114466;28;20080;-65
2022/05/06 01:45:15;;;;;;;26.80;13.25;;;10.10;99.90;;;;;;5113538;28;20039;-67
2022/05/06 01:47:41;;;;;;;21.42;13.35;;;10.10;99.90;;;;;;5114221;28;20035;-65
2022/05/06 01:50:09;;;;;;;22.60;13.43;;;10.00;99.90;;;;;;5114073;28;20075;-65
2022/05/06 01:52:37;;;;;;;23.10;13.88;;;10.00;99.90;;;;;;5114371;28;20353;-65
2022/05/06 01:55:05;;;;;;;22.90;12.77;;;10.00;99.90;;;;;;5114505;28;20122;-66
2022/05/06 01:57:30;;;;;;;26.67;14.13;;;10.00;99.90;;;;;;5114443;28;20039;-65
2022/05/06 01:59:56;;;;;;;26.13;14.35;;;10.00;99.90;;;;;;5113724;28;20076;-65
2022/05/06 02:02:21;;;;;;;24.35;14.05;;;10.00;99.90;;;;;;5078405;28;20050;-65
2022/05/06 02:07:31;;;;;;;29.08;14.85;;;9.90;99.90;;;;;;5094950;28;20539;-65
2022/05/06 02:09:57;;;;;;;24.83;14.75;;;9.90;99.90;;;;;;5112429;28;20061;-65
2022/05/06 02:12:23;;;;;;;36.63;16.02;;;9.90;99.90;;;;;;5113868;28;20498;-65
2022/05/06 02:14:48;;;;;;;30.30;15.75;;;9.90;99.90;;;;;;5113282;28;20372;-65
2022/05/06 02:17:14;;;;;;;26.65;14.82;;;9.90;99.90;;;;;;5113633;28;20040;-65
2022/05/06 02:19:40;;;;;;;30.00;14.80;;;9.80;99.90;;;;;;5113174;28;20036;-65
2022/05/06 02:22:06;;;;;;;28.50;15.23;;;9.80;99.90;;;;;;5113745;28;20561;-65
2022/05/06 02:24:31;;;;;;;29.27;14.88;;;9.80;99.90;;;;;;5078503;28;20046;-65
2022/05/06 02:26:57;;;;;;;26.55;14.70;;;9.80;99.90;;;;;;5113419;28;20032;-65
2022/05/06 02:29:22;;;;;;;28.10;14.23;;;9.80;99.90;;;;;;5112694;28;20645;-66
2022/05/06 02:34:32;;;;;;;32.25;14.80;;;9.70;99.90;;;;;;5094614;28;20130;-65
2022/05/06 02:36:57;;;;;;;24.25;13.52;;;9.70;99.90;;;;;;5095188;28;20558;-64
2022/05/06 02:39:23;;;;;;;23.15;13.13;;;9.60;99.90;;;;;;5112658;28;20514;-66
2022/05/06 02:41:49;;;;;;;22.02;13.15;;;9.60;99.90;;;;;;5112488;28;20051;-66
2022/05/06 02:44:14;;;;;;;24.73;14.20;;;9.60;99.90;;;;;;5112913;28;20039;-65
2022/05/06 02:46:40;;;;;;;22.85;13.38;;;9.50;99.90;;;;;;5113083;28;20484;-66
2022/05/06 02:49:05;;;;;;;23.77;13.73;;;9.50;99.90;;;;;;5112022;28;20043;-65
2022/05/06 02:51:31;;;;;;;26.92;13.90;;;9.50;99.90;;;;;;5113402;28;20041;-67
2022/05/06 02:53:57;;;;;;;25.55;13.57;;;9.50;99.90;;;;;;5112874;28;20568;-64
2022/05/06 02:56:24;;;;;;;29.25;15.93;;;9.50;99.90;;;;;;5112989;28;20135;-65
2022/05/06 02:58:49;;;;;;;27.98;14.70;;;9.40;99.90;;;;;;5112573;28;20475;-65
2022/05/06 03:01:15;;;;;;;31.45;15.82;;;9.50;99.90;;;;;;5112345;28;20125;-64
2022/05/06 03:03:41;;;;;;;33.15;15.65;;;9.50;99.90;;;;;;5112098;28;20078;-65
2022/05/06 03:06:06;;;;;;;26.70;14.30;;;9.50;99.90;;;;;;5113140;28;20031;-65
2022/05/06 03:08:32;;;;;;;26.33;15.27;;;9.40;99.90;;;;;;5112988;28;20088;-65
2022/05/06 03:10:59;;;;;;;28.17;14.52;;;9.40;99.90;;;;;;5113000;28;20036;-66
2022/05/06 03:13:25;;;;;;;29.15;14.57;;;9.40;99.90;;;;;;5112777;28;20502;-65
2022/05/06 03:15:52;;;;;;;28.20;15.65;;;9.40;99.90;;;;;;5112570;28;20039;-64
2022/05/06 03:18:17;;;;;;;34.70;16.58;;;9.30;99.90;;;;;;5112373;28;20044;-66
2022/05/06 03:20:44;;;;;;;27.50;15.00;;;9.30;99.90;;;;;;5112050;28;20443;-65
2022/05/06 03:23:09;;;;;;;26.70;14.73;;;9.30;99.90;;;;;;5112498;28;20119;-65
2022/05/06 03:25:35;;;;;;;31.77;15.77;;;9.20;99.90;;;;;;5112434;28;20707;-64
2022/05/06 03:28:07;;;;;;;34.97;15.98;;;9.10;99.90;;;;;;5110926;28;20032;-64
2022/05/06 03:30:40;;;;;;;28.30;15.23;;;9.10;99.90;;;;;;5111193;28;20108;-65
2022/05/06 03:33:09;;;;;;;28.38;14.77;;;9.20;99.90;;;;;;5112026;28;20047;-65
2022/05/06 03:35:36;;;;;;;25.05;14.38;;;9.20;99.90;;;;;;5093544;28;20051;-64
2022/05/06 03:38:01;;;;;;;24.65;14.63;;;9.10;99.90;;;;;;5111664;28;20496;-65
2022/05/06 03:40:27;;;;;;;28.13;14.82;;;9.10;99.90;;;;;;5111723;28;20076;-64
2022/05/06 03:42:52;;;;;;;27.23;14.82;;;9.10;99.90;;;;;;5110717;28;20758;-65
2022/05/06 03:45:18;;;;;;;30.50;15.85;;;8.90;99.90;;;;;;5109716;28;20114;-67
2022/05/06 03:47:44;;;;;;;29.27;15.68;;;9.00;99.90;;;;;;5108556;28;20071;-67
2022/05/06 03:52:54;;;;;;;24.58;13.98;;;9.10;99.90;;;;;;5112033;28;20122;-65
2022/05/06 03:55:20;;;;;;;29.10;15.55;;;9.00;99.90;;;;;;5110703;28;20115;-65
2022/05/06 03:57:46;;;;;;;32.35;16.52;;;9.00;99.90;;;;;;5092392;28;20046;-65
2022/05/06 04:00:14;;;;;;;27.35;14.43;;;8.90;99.90;;;;;;5111049;28;20506;-65
2022/05/06 04:02:40;;;;;;;28.50;15.88;;;8.90;99.90;;;;;;5111568;28;20083;-66
2022/05/06 04:05:06;;;;;;;27.40;14.75;;;9.00;99.90;;;;;;5111446;28;20094;-65
2022/05/06 04:07:32;;;;;;;27.10;14.45;;;9.00;99.90;;;;;;5093032;28;20043;-65
2022/05/06 04:09:57;;;;;;;28.80;14.93;;;9.00;99.90;;;;;;5110571;28;20032;-65
2022/05/06 04:12:23;;;;;;;26.98;15.32;;;8.90;99.90;;;;;;5111234;28;20065;-67
2022/05/06 04:14:49;;;;;;;26.65;14.43;;;8.90;99.90;;;;;;5111435;28;20048;-65
2022/05/06 04:17:15;;;;;;;26.63;14.68;;;9.00;99.90;;;;;;5111134;28;20039;-66
2022/05/06 04:23:28;;;;;;;28.20;13.88;;;9.00;99.90;;;;;;5110773;28;20042;-64
2022/05/06 04:25:31;;;;;;;33.88;16.90;;;8.90;99.90;;;;;;5031428;28;20041;-64
2022/05/06 04:27:56;;;;;;;33.45;16.75;;;9.10;99.90;;;;;;5097084;28;20040;-65
2022/05/06 04:30:22;;;;;;;30.52;17.05;;;9.20;99.90;;;;;;5111289;28;20491;-65
2022/05/06 04:32:47;;;;;;;35.38;17.88;;;9.20;99.90;;;;;;5111123;28;20039;-64
2022/05/06 04:35:15;;;;;;;29.23;16.70;;;9.20;99.90;;;;;;5110717;28;20538;-65
2022/05/06 04:37:41;;;;;;;34.85;16.52;;;9.20;99.90;;;;;;5092840;28;20051;-65
2022/05/06 04:40:07;;;;;;;32.08;15.90;;;9.20;99.90;;;;;;5111070;28;20047;-65
2022/05/06 04:42:33;;;;;;;26.33;15.20;;;9.20;99.90;;;;;;5111257;28;20054;-65
2022/05/06 04:44:59;;;;;;;34.45;16.23;;;9.30;99.90;;;;;;5111288;28;20039;-65
2022/05/06 04:47:24;;;;;;;31.58;16.70;;;9.40;99.90;;;;;;5111209;28;20036;-65
2022/05/06 04:49:50;;;;;;;30.67;16.58;;;9.50;99.90;;;;;;5110135;28;20046;-65
2022/05/06 04:52:15;;;;;;;31.67;17.65;;;9.50;99.90;;;;;;5111239;28;20107;-65
2022/05/06 04:54:41;;;;;;;33.15;18.67;;;9.60;99.90;;;;;;5110910;28;20495;-65
2022/05/06 04:57:07;;;;;;;37.95;17.65;;;9.70;99.90;;;;;;5110914;28;20506;-65
2022/05/06 04:59:32;;;;;;;36.92;18.55;;;9.70;99.90;;;;;;5110676;28;20043;-65
2022/05/06 05:01:58;;;;;;;34.08;17.77;;;9.70;99.90;;;;;;5110772;28;20438;-65
2022/05/06 05:04:27;;;;;;;34.72;17.52;;;9.70;99.90;;;;;;5110048;28;20039;-66
2022/05/06 05:06:54;;;;;;;40.90;18.17;;;9.70;99.90;;;;;;5110965;28;20042;-66
2022/05/06 05:09:20;;;;;;;37.80;20.23;;;9.90;99.90;;;;;;5110866;28;20039;-65
2022/05/06 05:11:47;;;;;;;37.80;20.73;;;10.00;99.90;;;;;;5110917;28;20484;-65
2022/05/06 05:14:12;;;;;;;43.47;19.67;;;10.20;99.90;;;;;;5110945;28;20039;-66
2022/05/06 05:16:38;;;;;;;36.25;20.95;;;10.30;99.90;;;;;;5110750;28;20047;-67
2022/05/06 05:19:03;;;;;;;39.72;21.52;;;10.40;99.90;;;;;;5110187;28;20043;-65
2022/05/06 05:21:29;;;;;;;38.88;20.20;;;10.50;99.90;;;;;;5110535;28;20043;-65
2022/05/06 05:23:55;;;;;;;43.15;20.33;;;10.60;99.90;;;;;;5110607;28;20040;-66
2022/05/06 05:26:20;;;;;;;39.70;21.13;;;10.70;99.90;;;;;;5110765;28;20028;-65
2022/05/06 05:28:46;;;;;;;48.15;22.20;;;10.70;99.90;;;;;;5109484;28;20040;-66
2022/05/06 05:31:11;;;;;;;42.78;21.98;;;10.90;99.90;;;;;;5110065;28;20080;-66
2022/05/06 05:33:37;;;;;;;47.15;23.40;;;10.90;99.90;;;;;;5110359;28;20047;-67
2022/05/06 05:36:02;;;;;;;48.38;23.98;;;10.90;99.90;;;;;;5110496;28;20440;-65
2022/05/06 05:38:28;;;;;;;47.72;23.98;;;10.90;99.90;;;;;;5109647;28;20043;-65
2022/05/06 05:40:53;;;;;;;56.70;25.80;;;11.00;99.90;;;;;;5110430;28;20040;-65
2022/05/06 05:48:51;;;;;;;55.75;25.10;;;11.30;99.90;;;;;;5110249;28;20075;-67
2022/05/06 05:51:16;;;;;;;45.92;24.13;;;11.40;99.90;;;;;;5114206;28;20066;-66
2022/05/06 05:53:42;;;;;;;58.20;27.25;;;11.50;99.90;;;;;;5095567;28;20070;-65
2022/05/06 05:56:08;;;;;;;57.15;26.27;;;11.70;99.90;;;;;;5114187;28;20048;-66
2022/05/06 05:58:34;;;;;;;51.47;25.63;;;11.80;99.90;;;;;;5113434;28;20036;-66
2022/05/06 06:01:00;;;;;;;55.03;27.52;;;11.90;99.90;;;;;;5113925;28;20045;-67
2022/05/06 06:03:26;;;;;;;58.60;27.88;;;12.00;99.90;;;;;;5113850;28;20047;-66
2022/05/06 06:05:52;;;;;;;58.83;28.88;;;12.10;99.90;;;;;;5113577;28;20031;-66
2022/05/06 06:08:18;;;;;;;56.75;29.08;;;12.10;99.90;;;;;;5110549;28;20043;-66
2022/05/06 06:10:43;;;;;;;56.40;28.13;;;12.20;99.90;;;;;;5113671;28;20062;-65
2022/05/06 06:13:09;;;;;;;57.35;29.83;;;12.20;99.90;;;;;;5113922;28;20037;-68
2022/05/06 06:15:35;;;;;;;67.55;30.65;;;12.30;99.90;;;;;;5113640;28;20039;-67
2022/05/06 06:18:00;;;;;;;54.67;28.42;;;12.40;99.90;;;;;;5113710;28;20051;-67
2022/05/06 06:20:26;;;;;;;58.55;29.20;;;12.50;99.90;;;;;;5113532;28;20071;-68
2022/05/06 06:22:52;;;;;;;62.05;29.20;;;12.60;99.90;;;;;;5112887;28;20046;-67
2022/05/06 06:25:17;;;;;;;54.05;28.17;;;12.70;99.90;;;;;;5113773;28;20088;-67
2022/05/06 06:27:46;;;;;;;49.63;26.38;;;12.70;99.90;;;;;;5112637;28;20120;-68
2022/05/06 06:30:12;;;;;;;47.80;25.00;;;12.80;99.90;;;;;;5113265;28;20165;-68
2022/05/06 06:32:37;;;;;;;50.33;23.08;;;12.80;99.90;;;;;;5113134;28;20110;-68
2022/05/06 06:35:03;;;;;;;43.75;21.80;;;12.90;99.90;;;;;;5113809;28;20036;-68
2022/05/06 06:37:31;;;;;;;32.15;17.70;;;12.90;99.90;;;;;;5113396;28;20039;-68
2022/05/06 06:39:56;;;;;;;34.03;17.88;;;12.90;99.90;;;;;;5112466;28;20031;-68
2022/05/06 06:42:22;;;;;;;27.77;16.23;;;13.00;99.90;;;;;;5112329;28;20445;-68
2022/05/06 06:44:48;;;;;;;26.83;16.33;;;13.00;99.90;;;;;;5113389;28;20047;-67
2022/05/06 06:47:14;;;;;;;27.92;15.50;;;13.00;99.90;;;;;;5094278;28;20130;-67
2022/05/06 06:49:39;;;;;;;26.70;15.68;;;13.00;99.90;;;;;;5112251;28;20065;-67
2022/05/06 06:52:06;;;;;;;32.58;16.98;;;13.10;99.90;;;;;;5112669;28;20063;-67
2022/05/06 06:54:32;;;;;;;31.83;16.95;;;13.20;99.90;;;;;;5112074;28;20078;-68
2022/05/06 06:56:58;;;;;;;27.85;16.38;;;13.20;99.90;;;;;;5112633;28;20035;-67
2022/05/06 06:59:24;;;;;;;29.42;16.60;;;13.20;99.90;;;;;;5111712;28;20119;-67
2022/05/06 07:01:49;;;;;;;27.30;15.70;;;13.20;99.90;;;;;;5110953;28;20036;-68
2022/05/06 07:04:15;;;;;;;27.85;16.00;;;13.30;99.90;;;;;;5112897;28;20039;-67
2022/05/06 07:12:09;;;;;;;33.90;17.15;;;13.40;99.90;;;;;;5107743;28;20430;-68
2022/05/06 07:14:36;;;;;;;29.17;16.77;;;13.50;99.90;;;;;;5102194;28;20036;-68
2022/05/06 07:17:02;;;;;;;36.53;16.38;;;13.50;99.90;;;;;;5101453;28;20067;-68
2022/05/06 07:19:28;;;;;;;34.90;17.30;;;13.60;99.90;;;;;;5099491;28;20032;-68
2022/05/06 07:21:54;;;;;;;31.13;16.63;;;13.60;99.90;;;;;;5094414;28;20117;-68
2022/05/06 07:24:20;;;;;;;32.90;14.77;;;13.60;99.90;;;;;;5092418;28;20046;-69
2022/05/06 07:26:49;;;;;;;33.50;16.27;;;13.60;99.90;;;;;;5091649;28;20075;-68
2022/05/06 07:29:14;;;;;;;30.00;15.85;;;13.60;99.90;;;;;;5091303;28;20085;-68
2022/05/06 07:31:43;;;;;;;32.00;16.40;;;13.60;99.90;;;;;;5091966;28;20040;-66
2022/05/06 07:34:12;;;;;;;35.88;15.85;;;13.70;99.90;;;;;;5092109;28;20044;-65
2022/05/06 07:36:42;;;;;;;25.70;13.98;;;13.80;99.90;;;;;;5091757;28;20124;-64
2022/05/06 07:39:12;;;;;;;30.10;16.70;;;14.10;99.90;;;;;;5091024;28;20047;-67
2022/05/06 07:41:38;;;;;;;30.77;14.60;;;14.30;99.90;;;;;;5091333;28;20044;-69
2022/05/06 07:44:04;;;;;;;32.88;19.10;;;14.50;99.90;;;;;;5090916;28;20097;-67
2022/05/06 07:46:31;;;;;;;34.33;19.08;;;14.50;99.90;;;;;;5091455;28;20044;-67
2022/05/06 07:48:56;;;;;;;40.08;20.70;;;14.50;99.90;;;;;;5090881;28;20043;-68
2022/05/06 07:51:22;;;;;;;35.95;19.85;;;14.60;99.90;;;;;;5091667;28;20036;-68
2022/05/06 07:53:49;;;;;;;33.40;19.67;;;14.60;99.90;;;;;;5093425;28;20530;-67
2022/05/06 07:56:15;;;;;;;30.40;18.65;;;14.60;99.90;;;;;;5102699;28;20031;-67
2022/05/06 07:58:40;;;;;;;31.35;19.63;;;14.60;99.90;;;;;;5109865;28;20039;-67
2022/05/06 08:01:07;;;;;;;37.17;19.38;;;14.60;99.90;;;;;;5111879;28;20512;-68
2022/05/06 08:06:17;;;;;;;31.25;18.58;;;14.60;99.90;;;;;;5112004;28;20066;-68
2022/05/06 08:08:43;;;;;;;30.40;18.27;;;14.70;99.90;;;;;;5111724;28;20496;-68
2022/05/06 08:11:08;;;;;;;30.30;17.45;;;14.70;99.90;;;;;;5111940;28;20099;-68
2022/05/06 08:13:34;;;;;;;32.35;19.15;;;14.70;99.90;;;;;;5111543;28;20036;-68
2022/05/06 08:15:59;;;;;;;35.40;21.10;;;14.70;99.90;;;;;;5111585;28;20047;-68
2022/05/06 08:18:25;;;;;;;32.45;19.35;;;14.70;99.90;;;;;;5111657;28;20092;-68
2022/05/06 08:20:52;;;;;;;34.22;19.10;;;14.80;99.90;;;;;;5111787;28;20040;-68
2022/05/06 08:23:22;;;;;;;36.03;19.10;;;14.80;99.90;;;;;;5111620;28;20035;-68
2022/05/06 08:25:49;;;;;;;35.25;19.42;;;14.80;99.90;;;;;;5111681;28;20043;-68
2022/05/06 08:28:15;;;;;;;39.85;20.88;;;14.80;99.90;;;;;;5111399;28;20043;-68
2022/05/06 08:30:41;;;;;;;35.72;20.52;;;14.80;99.90;;;;;;5111198;28;20036;-68
2022/05/06 08:33:06;;;;;;;36.83;20.55;;;14.90;99.90;;;;;;5093233;28;20066;-68
2022/05/06 08:35:32;;;;;;;34.78;19.85;;;14.90;99.90;;;;;;5111553;28;20040;-68
2022/05/06 08:37:58;;;;;;;35.75;19.58;;;14.90;99.90;;;;;;5111416;28;20054;-68
2022/05/06 08:40:26;;;;;;;34.83;19.95;;;14.90;99.90;;;;;;5111142;28;20083;-68
2022/05/06 08:42:52;;;;;;;36.08;19.10;;;15.00;99.90;;;;;;5111216;28;20047;-68
2022/05/06 08:50:54;;;;;;;33.03;16.05;;;15.30;99.90;;;;;;5090939;28;20467;-68
2022/05/06 08:53:26;;;;;;;31.13;15.52;;;15.40;99.90;;;;;;5090905;28;20523;-68
2022/05/06 08:55:55;;;;;;;26.77;14.93;;;15.50;99.90;;;;;;5090644;28;20492;-68
2022/05/06 08:58:24;;;;;;;26.23;15.00;;;15.60;99.90;;;;;;5072530;28;20036;-68
2022/05/06 09:00:50;;;;;;;25.60;13.80;;;15.70;99.90;;;;;;5090635;28;20036;-68
2022/05/06 09:03:17;;;;;;;28.05;14.60;;;15.70;99.90;;;;;;5090613;28;20032;-68
2022/05/06 09:05:49;;;;;;;27.45;13.90;;;15.80;99.90;;;;;;5090634;28;20032;-68
2022/05/06 09:08:15;;;;;;;;;;;15.90;99.90;;;;;;5091055;28;20042;-68
2022/05/06 09:10:40;;;;;;;25.00;13.52;;;15.90;99.90;;;;;;5090478;28;20006;-68
2022/05/06 09:13:06;;;;;;;29.63;15.20;;;16.00;99.90;;;;;;5090857;28;20055;-68
2022/05/06 09:18:22;;;;;;;23.83;13.77;;;16.20;99.90;;;;;;5090629;28;20048;-68
2022/05/06 09:20:49;;;;;;;23.20;13.50;;;16.20;99.90;;;;;;5090426;28;20046;-68
2022/05/06 09:23:25;;;;;;;27.05;12.88;;;16.30;99.90;;;;;;5090542;28;20044;-68
2022/05/06 09:25:55;;;;;;;20.73;12.23;;;16.40;99.90;;;;;;5093705;28;20438;-68
2022/05/06 09:28:29;;;;;;;19.05;11.60;;;16.50;99.90;;;;;;5094462;28;20040;-68
2022/05/06 09:31:02;;;;;;;21.50;11.02;;;16.60;99.90;;;;;;5094452;28;20086;-68
2022/05/06 09:33:33;;;;;;;26.25;11.98;;;16.50;99.90;;;;;;5095472;28;20040;-68
2022/05/06 09:35:59;;;;;;;19.60;10.75;;;16.70;99.90;;;;;;5095425;28;20508;-68
2022/05/06 09:38:26;;;;;;;19.25;10.30;;;16.70;99.90;;;;;;5095989;28;20047;-68
2022/05/06 09:40:51;;;;;;;24.83;12.88;;;16.90;99.90;;;;;;5095621;28;20046;-68
2022/05/06 09:43:19;;;;;;;20.35;11.73;;;16.80;99.90;;;;;;5094955;28;20119;-69
2022/05/06 09:45:46;;;;;;;21.13;11.05;;;16.90;99.90;;;;;;5094034;28;20040;-68
2022/05/06 09:48:13;;;;;;;20.15;10.55;;;17.00;99.90;;;;;;5094132;28;20043;-68
2022/05/06 09:50:41;;;;;;;26.42;12.05;;;17.00;99.90;;;;;;5093954;28;20120;-68
2022/05/06 09:53:09;;;;;;;23.30;12.20;;;17.20;99.90;;;;;;5094228;28;20055;-69
2022/05/06 09:55:37;;;;;;;24.80;11.85;;;17.20;99.90;;;;;;5093933;28;20522;-69
2022/05/06 09:58:03;;;;;;;21.27;10.85;;;17.30;99.90;;;;;;5093754;28;20047;-69
2022/05/06 10:00:29;;;;;;;19.73;10.13;;;17.40;99.90;;;;;;5093607;28;20036;-69
2022/05/06 10:02:56;;;;;;;23.00;9.15;;;17.40;99.90;;;;;;5093896;28;20046;-69
2022/05/06 10:05:26;;;;;;;20.70;9.93;;;17.40;99.90;;;;;;5100128;28;20115;-69
2022/05/06 10:08:10;;;;;;;23.27;9.57;;;17.50;99.90;;;;;;5104956;28;20032;-69
2022/05/06 10:10:40;;;;;;;16.33;9.35;;;17.60;99.90;;;;;;5088969;28;20077;-69
2022/05/06 10:13:19;;;;;;;13.23;7.25;;;17.60;99.90;;;;;;5084743;28;20043;-69
2022/05/06 10:15:48;;;;;;;14.90;6.65;;;17.70;99.90;;;;;;5075521;28;20105;-69
2022/05/06 10:18:34;;;;;;;9.65;5.50;;;17.80;99.90;;;;;;5093506;28;20047;-69
2022/05/06 10:21:02;;;;;;;7.47;5.18;;;17.90;99.90;;;;;;5075626;28;20435;-69
2022/05/06 10:23:45;;;;;;;7.38;6.07;;;17.90;99.90;;;;;;5075285;28;20048;-68
2022/05/06 10:26:34;;;;;;;8.95;6.05;;;18.00;99.90;;;;;;5075469;28;20059;-68
2022/05/06 10:34:32;;;;;;;8.82;6.30;;;18.10;99.90;;;;;;5097997;28;20403;-66
2022/05/06 10:37:01;;;;;;;6.40;5.07;;;18.30;99.90;;;;;;5112830;28;20035;-66
2022/05/06 10:39:34;;;;;;;8.88;6.47;;;18.40;99.90;;;;;;5113070;28;20044;-67
2022/05/06 10:42:09;;;;;;;8.50;5.35;;;18.40;99.90;;;;;;5113594;28;20083;-66
2022/05/06 10:44:44;;;;;;;10.43;5.43;;;18.40;99.90;;;;;;5113739;28;20129;-67
2022/05/06 10:47:12;;;;;;;8.52;5.05;;;18.40;99.90;;;;;;5112873;28;20080;-66
2022/05/06 10:49:38;;;;;;;5.53;4.35;;;18.40;99.90;;;;;;5113389;28;20032;-66
2022/05/06 10:52:15;;;;;;;6.90;4.43;;;18.50;99.90;;;;;;5113535;28;20063;-66
2022/05/06 10:54:49;;;;;;;7.93;5.40;;;18.50;99.90;;;;;;5113403;28;20036;-66
2022/05/06 10:57:16;;;;;;;31.65;14.45;;;18.60;99.90;;;;;;5113043;28;20040;-66
2022/05/06 11:00:02;;;;;;;14.13;7.43;;;18.60;99.90;;;;;;5112861;28;20046;-66
2022/05/06 11:02:32;;;;;;;7.05;5.15;;;18.80;99.90;;;;;;5113004;28;20050;-66
2022/05/06 11:05:07;;;;;;;11.57;5.85;;;18.80;99.90;;;;;;5112865;28;20379;-66
2022/05/06 11:07:37;;;;;;;119.68;49.92;;;18.90;99.90;;;;;;5113016;28;20043;-66
2022/05/06 11:10:16;;;;;;;26.92;13.70;;;19.00;99.90;;;;;;5112996;28;20075;-66
2022/05/06 11:12:44;;;;;;;17.88;9.60;;;18.90;99.90;;;;;;5112885;28;20035;-66
2022/05/06 11:15:15;;;;;;;8.60;4.28;;;18.70;99.90;;;;;;5112638;28;20046;-66
2022/05/06 11:17:45;;;;;;;6.65;4.65;;;18.80;99.90;;;;;;5112911;28;20039;-66
2022/05/06 11:20:26;;;;;;;6.45;4.72;;;19.00;99.90;;;;;;5112621;28;20122;-65
2022/05/06 11:23:13;;;;;;;7.28;4.40;;;18.90;99.90;;;;;;5112520;28;20570;-65
2022/05/06 11:25:46;;;;;;;6.43;3.50;;;19.10;99.90;;;;;;5112487;28;20051;-66
2022/05/06 11:28:17;;;;;;;5.00;3.47;;;19.10;99.90;;;;;;5112304;28;20046;-67
2022/05/06 11:30:44;;;;;;;3.90;3.17;;;19.10;99.90;;;;;;5112242;28;20042;-66
2022/05/06 11:33:26;;;;;;;3.88;3.30;;;19.20;99.90;;;;;;5112352;28;20538;-67
2022/05/06 11:36:01;;;;;;;7.28;4.10;;;19.30;99.90;;;;;;5112271;28;20036;-66
2022/05/06 11:38:37;;;;;;;5.68;3.58;;;19.20;99.90;;;;;;5112273;28;20035;-69
2022/05/06 11:41:14;;;;;;;5.63;4.20;;;19.40;99.90;;;;;;5112488;28;20036;-68
2022/05/06 11:43:41;;;;;;;4.05;3.30;;;19.40;99.90;;;;;;5093962;28;20047;-69
2022/05/06 11:48:57;;;;;;;3.58;2.83;;;19.40;99.90;;;;;;5093252;28;20039;-69
2022/05/06 11:51:27;;;;;;;4.55;3.35;;;19.40;99.90;;;;;;5112283;28;20036;-69
2022/05/06 11:53:54;;;;;;;4.50;4.07;;;19.50;99.90;;;;;;5112260;28;20046;-69
2022/05/06 11:56:25;;;;;;;5.75;4.10;;;19.60;99.90;;;;;;5112068;28;20031;-69
2022/05/06 11:58:53;;;;;;;6.15;5.13;;;19.60;99.90;;;;;;5110478;28;20044;-69
2022/05/06 12:01:26;;;;;;;7.07;4.43;;;19.60;99.90;;;;;;5093766;28;20079;-69
2022/05/06 12:03:52;;;;;;;4.97;4.35;;;19.70;99.90;;;;;;5093737;28;20051;-69
2022/05/06 12:06:25;;;;;;;6.53;4.57;;;19.70;99.90;;;;;;5112010;28;20027;-69
2022/05/06 12:08:51;;;;;;;5.57;3.90;;;19.60;99.90;;;;;;5111634;28;20044;-69
2022/05/06 12:11:24;;;;;;;4.93;3.60;;;19.80;99.90;;;;;;5111771;28;20073;-69
2022/05/06 12:13:49;;;;;;;9.88;3.85;;;19.80;98.10;;;;;;5112016;28;20036;-69
2022/05/06 12:16:15;;;;;;;10.57;5.00;;;19.90;98.50;;;;;;5111778;28;20040;-69
2022/05/06 12:18:54;;;;;;;13.48;6.30;;;19.90;98.80;;;;;;5111629;28;20548;-69
2022/05/06 12:21:23;;;;;;;8.32;4.30;;;19.90;97.90;;;;;;5111692;28;20075;-69
2022/05/06 12:23:51;;;;;;;7.53;3.90;;;20.00;96.00;;;;;;5111462;28;20056;-69
2022/05/06 12:26:27;;;;;;;5.28;3.55;;;20.10;95.50;;;;;;5111386;28;20048;-69
2022/05/06 12:28:52;;;;;;;8.15;2.72;;;20.10;93.90;;;;;;5111362;28;20043;-69
2022/05/06 12:31:28;;;;;;;9.52;3.38;;;20.20;91.20;;;;;;5111633;28;20415;-69
2022/05/06 12:34:04;;;;;;;7.20;3.13;;;20.30;82.70;;;;;;5111526;28;20048;-69
2022/05/06 12:36:30;;;;;;;6.90;2.85;;;20.30;81.30;;;;;;5111123;28;20035;-69
2022/05/06 12:38:55;;;;;;;6.30;2.75;;;20.30;90.10;;;;;;5111431;28;20092;-69
2022/05/06 12:41:22;;;;;;;4.13;2.22;;;20.30;90.00;;;;;;5111631;28;20579;-69
2022/05/06 12:43:48;;;;;;;4.70;2.78;;;20.30;90.70;;;;;;5111334;28;20086;-69
2022/05/06 12:46:44;;;;;;;7.22;2.60;;;20.40;87.20;;;;;;5093140;28;20047;-70
2022/05/06 12:51:53;;;;;;;6.30;2.75;;;20.50;87.50;;;;;;5028468;28;20042;-69
2022/05/06 12:54:19;;;;;;;6.63;2.70;;;20.50;86.40;;;;;;5028329;28;20141;-69
2022/05/06 12:56:44;;;;;;;6.00;2.80;;;20.50;87.90;;;;;;5011753;28;20057;-70
2022/05/06 12:59:10;;;;;;;7.85;3.38;;;20.60;84.70;;;;;;5011879;28;20131;-69
2022/05/06 13:01:36;;;;;;;4.95;3.17;;;20.50;84.80;;;;;;5032442;28;20041;-69
2022/05/06 13:04:02;;;;;;;12.25;4.10;;;20.60;88.20;;;;;;5032479;28;20042;-69
2022/05/06 13:06:31;;;;;;;5.55;2.00;;;20.50;89.90;;;;;;5032405;28;20042;-69
2022/05/06 13:08:57;;;;;;;4.95;3.65;;;20.60;90.60;;;;;;5032097;28;20099;-70
2022/05/06 13:11:22;;;;;;;19.73;5.80;;;20.70;90.00;;;;;;5015880;28;20716;-68
2022/05/06 13:13:48;;;;;;;10.43;4.10;;;20.70;91.30;;;;;;5032204;28;20100;-69
2022/05/06 13:16:14;;;;;;;15.02;7.60;;;20.60;90.90;;;;;;5032128;28;20535;-69
2022/05/06 13:18:40;;;;;;;34.17;14.98;;;20.70;91.60;;;;;;5031845;28;20053;-70
2022/05/06 13:21:06;;;;;;;22.42;11.38;;;20.70;92.90;;;;;;5032192;28;20378;-69